createdAt,value
2023-05-12T00:01:59.020Z,100.00
2023-05-12T00:04:26.847Z,100.00
2023-05-12T00:06:54.320Z,100.00
2023-05-12T00:09:21.838Z,100.00
2023-05-12T00:11:49.444Z,100.00
2023-05-12T00:14:17.203Z,100.00
2023-05-12T00:16:44.761Z,100.00
2023-05-12T00:19:13.593Z,100.00
2023-05-12T00:21:41.572Z,100.00
2023-05-12T00:24:09.534Z,100.00
2023-05-12T00:26:37.027Z,100.00
2023-05-12T00:29:04.540Z,100.00
2023-05-12T00:31:32.065Z,100.00
2023-05-12T00:33:59.596Z,100.00
2023-05-12T00:36:28.498Z,100.00
2023-05-12T00:38:56.108Z,100.00
2023-05-12T00:41:23.575Z,100.00
2023-05-12T00:43:51.242Z,100.00
2023-05-12T00:46:19.045Z,100.00
2023-05-12T00:48:46.628Z,100.00
2023-05-12T00:51:14.541Z,100.00
2023-05-12T00:53:49.882Z,100.00
2023-05-12T00:56:19.744Z,100.00
2023-05-12T00:58:47.372Z,100.00
2023-05-12T01:01:14.920Z,100.00
2023-05-12T01:03:42.574Z,100.00
2023-05-12T01:06:14.479Z,100.00
2023-05-12T01:08:43.532Z,100.00
2023-05-12T01:11:10.957Z,100.00
2023-05-12T01:13:39.420Z,100.00
2023-05-12T01:16:08.961Z,100.00
2023-05-12T01:18:39.166Z,100.00
2023-05-12T01:21:06.986Z,100.00
2023-05-12T01:23:36.480Z,100.00
2023-05-12T01:26:06.518Z,100.00
2023-05-12T01:28:34.322Z,100.00
2023-05-12T01:31:04.568Z,100.00
2023-05-12T01:33:32.207Z,100.00
2023-05-12T01:35:59.638Z,100.00
2023-05-12T01:38:27.114Z,100.00
2023-05-12T01:40:54.575Z,100.00
2023-05-12T01:43:23.462Z,100.00
2023-05-12T01:45:50.906Z,100.00
2023-05-12T01:48:18.323Z,100.00
2023-05-12T01:50:45.769Z,100.00
2023-05-12T01:53:13.259Z,100.00
2023-05-12T01:55:40.835Z,100.00
2023-05-12T01:58:08.287Z,100.00
2023-05-12T02:00:37.054Z,100.00
2023-05-12T02:03:04.598Z,100.00
2023-05-12T02:05:32.133Z,100.00
2023-05-12T02:07:59.615Z,100.00
2023-05-12T02:10:27.690Z,100.00
2023-05-12T02:12:55.113Z,100.00
2023-05-12T02:15:22.755Z,100.00
2023-05-12T02:17:54.281Z,100.00
2023-05-12T02:20:22.167Z,100.00
2023-05-12T02:22:49.744Z,100.00
2023-05-12T02:25:17.339Z,100.00
2023-05-12T02:27:45.502Z,100.00
2023-05-12T02:30:13.265Z,100.00
2023-05-12T02:32:41.031Z,100.00
2023-05-12T02:35:11.105Z,100.00
2023-05-12T02:37:38.528Z,100.00
2023-05-12T02:40:07.658Z,100.00
2023-05-12T02:42:38.238Z,100.00
2023-05-12T02:45:06.690Z,100.00
2023-05-12T02:47:34.212Z,100.00
2023-05-12T02:50:01.699Z,100.00
2023-05-12T02:52:30.741Z,100.00
2023-05-12T02:54:58.173Z,100.00
2023-05-12T02:57:31.907Z,100.00
2023-05-12T02:59:59.355Z,100.00
2023-05-12T03:02:27.024Z,100.00
2023-05-12T03:04:54.615Z,100.00
2023-05-12T03:07:22.078Z,100.00
2023-05-12T03:09:50.920Z,100.00
2023-05-12T03:12:18.395Z,100.00
2023-05-12T03:14:46.013Z,100.00
2023-05-12T03:17:13.577Z,100.00
2023-05-12T03:19:41.131Z,100.00
2023-05-12T03:22:08.621Z,100.00
2023-05-12T03:24:36.533Z,100.00
2023-05-12T03:27:05.647Z,100.00
2023-05-12T03:29:33.127Z,100.00
2023-05-12T03:32:00.598Z,100.00
2023-05-12T03:34:28.031Z,100.00
2023-05-12T03:36:55.512Z,100.00
2023-05-12T03:39:24.735Z,100.00
2023-05-12T03:41:52.185Z,100.00
2023-05-12T03:44:21.214Z,100.00
2023-05-12T03:46:48.732Z,99.21
2023-05-12T03:49:16.302Z,99.33
2023-05-12T03:51:43.756Z,100.00
2023-05-12T03:54:11.208Z,100.00
2023-05-12T03:56:38.653Z,100.00
2023-05-12T03:59:06.384Z,100.00
2023-05-12T04:01:35.635Z,100.00
2023-05-12T04:04:03.182Z,100.00
2023-05-12T04:06:31.698Z,100.00
2023-05-12T04:08:59.800Z,100.00
2023-05-12T04:11:27.271Z,100.00
2023-05-12T04:13:55.066Z,100.00
2023-05-12T04:16:22.553Z,100.00
2023-05-12T04:18:51.699Z,100.00
2023-05-12T04:21:19.167Z,100.00
2023-05-12T04:23:46.636Z,100.00
2023-05-12T04:26:14.101Z,100.00
2023-05-12T04:28:41.522Z,100.00
2023-05-12T04:31:08.969Z,100.00
2023-05-12T04:33:36.479Z,100.00
2023-05-12T04:36:05.681Z,100.00
2023-05-12T04:38:33.153Z,100.00
2023-05-12T04:41:00.716Z,99.03
2023-05-12T04:46:00.250Z,97.74
2023-05-12T04:48:28.101Z,97.09
2023-05-12T04:50:55.718Z,96.98
2023-05-12T04:53:24.516Z,97.63
2023-05-12T04:55:52.590Z,98.32
2023-05-12T04:58:20.048Z,98.41
2023-05-12T05:00:47.697Z,98.87
2023-05-12T05:03:15.244Z,98.99
2023-05-12T05:05:42.777Z,98.75
2023-05-12T05:08:10.218Z,98.82
2023-05-12T05:10:39.194Z,99.12
2023-05-12T05:13:06.619Z,99.25
2023-05-12T05:15:34.155Z,99.62
2023-05-12T05:18:02.144Z,99.44
2023-05-12T05:20:29.849Z,99.21
2023-05-12T05:22:57.316Z,99.35
2023-05-12T05:25:26.370Z,99.34
2023-05-12T05:27:55.638Z,99.05
2023-05-12T05:30:23.123Z,99.12
2023-05-12T05:32:50.633Z,99.15
2023-05-12T05:35:18.747Z,99.21
2023-05-12T05:37:46.357Z,99.01
2023-05-12T05:40:14.211Z,98.47
2023-05-12T05:42:41.771Z,98.51
2023-05-12T05:45:11.765Z,98.58
2023-05-12T05:47:39.359Z,98.50
2023-05-12T05:50:08.709Z,97.85
2023-05-12T05:52:36.186Z,98.54
2023-05-12T05:55:03.692Z,98.19
2023-05-12T05:57:31.131Z,97.98
2023-05-12T05:59:58.679Z,97.84
2023-05-12T06:02:27.627Z,97.75
2023-05-12T06:04:55.241Z,97.65
2023-05-12T06:07:22.694Z,97.81
2023-05-12T06:09:50.212Z,97.82
2023-05-12T06:12:17.660Z,97.52
2023-05-12T06:14:45.176Z,97.86
2023-05-12T06:17:12.726Z,97.44
2023-05-12T06:19:41.531Z,97.89
2023-05-12T06:22:08.948Z,96.55
2023-05-12T06:24:36.381Z,96.67
2023-05-12T06:27:03.944Z,96.02
2023-05-12T06:29:31.401Z,96.08
2023-05-12T06:31:58.887Z,95.98
2023-05-12T06:34:26.709Z,96.07
2023-05-12T06:36:55.794Z,95.85
2023-05-12T06:39:23.264Z,95.47
2023-05-12T06:41:50.768Z,94.85
2023-05-12T06:44:18.284Z,94.83
2023-05-12T06:46:46.098Z,94.80
2023-05-12T06:49:13.707Z,95.18
2023-05-12T06:51:41.172Z,95.18
2023-05-12T06:54:10.006Z,94.30
2023-05-12T06:56:37.463Z,94.31
2023-05-12T06:59:04.913Z,94.74
2023-05-12T07:01:33.422Z,94.03
2023-05-12T07:04:01.105Z,93.69
2023-05-12T07:06:28.681Z,94.21
2023-05-12T07:08:56.322Z,94.24
2023-05-12T07:11:25.125Z,93.05
2023-05-12T07:13:53.037Z,93.64
2023-05-12T07:16:20.939Z,93.46
2023-05-12T07:18:48.548Z,93.13
2023-05-12T07:21:16.148Z,92.91
2023-05-12T07:23:43.724Z,92.82
2023-05-12T07:26:11.231Z,93.12
2023-05-12T07:28:40.037Z,93.40
2023-05-12T07:31:08.893Z,93.36
2023-05-12T07:33:37.144Z,93.35
2023-05-12T07:36:05.625Z,93.37
2023-05-12T07:38:33.092Z,93.29
2023-05-12T07:41:00.682Z,92.37
2023-05-12T07:43:28.482Z,92.14
2023-05-12T07:45:59.190Z,91.82
2023-05-12T07:48:26.805Z,92.00
2023-05-12T07:50:54.270Z,91.34
2023-05-12T07:53:22.025Z,91.28
2023-05-12T07:55:49.609Z,91.62
2023-05-12T07:58:17.154Z,91.96
2023-05-12T08:00:44.753Z,92.06
2023-05-12T08:03:14.099Z,92.07
2023-05-12T08:05:41.557Z,91.67
2023-05-12T08:08:12.186Z,91.22
2023-05-12T08:10:39.630Z,91.59
2023-05-12T08:13:07.235Z,91.57
2023-05-12T08:15:34.700Z,91.75
2023-05-12T08:18:02.306Z,91.04
2023-05-12T08:20:31.432Z,90.96
2023-05-12T08:22:58.959Z,91.56
2023-05-12T08:25:27.821Z,89.20
2023-05-12T08:27:55.759Z,90.37
2023-05-12T08:30:23.255Z,90.09
2023-05-12T08:32:50.727Z,88.68
2023-05-12T08:35:19.477Z,87.16
2023-05-12T08:37:48.485Z,87.10
2023-05-12T08:40:19.196Z,84.20
2023-05-12T08:42:55.662Z,84.71
2023-05-12T08:45:23.942Z,85.09
2023-05-12T08:47:52.283Z,82.82
2023-05-12T08:50:23.029Z,83.41
2023-05-12T08:52:52.405Z,83.18
2023-05-12T08:55:20.714Z,83.18
2023-05-12T08:57:49.026Z,82.28
2023-05-12T09:00:17.632Z,82.55
2023-05-12T09:02:53.049Z,81.90
2023-05-12T09:05:22.539Z,83.20
2023-05-12T09:07:52.984Z,82.30
2023-05-12T09:10:34.175Z,82.66
2023-05-12T09:13:04.834Z,82.20
2023-05-12T09:15:35.673Z,81.93
2023-05-12T09:18:03.207Z,79.93
2023-05-12T09:20:32.103Z,80.32
2023-05-12T09:23:14.867Z,80.24
2023-05-12T09:25:42.434Z,79.36
2023-05-12T09:28:10.596Z,79.40
2023-05-12T09:30:38.373Z,78.68
2023-05-12T09:33:07.824Z,79.13
2023-05-12T09:35:39.980Z,78.90
2023-05-12T09:38:09.957Z,78.46
2023-05-12T09:40:37.628Z,78.24
2023-05-12T09:43:06.269Z,76.52
2023-05-12T09:45:36.884Z,76.69
2023-05-12T09:48:11.051Z,75.26
2023-05-12T09:50:47.801Z,74.26
2023-05-12T09:53:18.231Z,73.83
2023-05-12T09:55:46.035Z,74.83
2023-05-12T09:58:16.072Z,74.15
2023-05-12T10:01:12.586Z,75.00
2023-05-12T10:03:33.053Z,74.24
2023-05-12T10:06:06.364Z,74.86
2023-05-12T10:08:39.600Z,75.51
2023-05-12T10:11:07.298Z,76.29
2023-05-12T10:13:35.115Z,76.13
2023-05-12T10:16:03.669Z,76.24
2023-05-12T10:18:32.530Z,75.93
2023-05-12T10:21:00.550Z,78.60
2023-05-12T10:23:28.609Z,77.28
2023-05-12T10:26:01.708Z,77.19
2023-05-12T10:28:29.320Z,78.74
2023-05-12T10:30:57.811Z,78.96
2023-05-12T10:33:25.456Z,80.17
2023-05-12T10:35:53.626Z,74.75
2023-05-12T10:38:21.130Z,72.26
2023-05-12T10:40:59.758Z,73.35
2023-05-12T10:43:28.386Z,70.89
2023-05-12T10:46:19.556Z,69.36
2023-05-12T10:48:55.420Z,67.56
2023-05-12T10:51:26.492Z,67.21
2023-05-12T10:53:57.177Z,68.24
2023-05-12T10:56:29.643Z,69.64
2023-05-12T10:59:12.967Z,67.68
2023-05-12T11:01:43.001Z,68.46
2023-05-12T11:04:15.300Z,69.55
2023-05-12T11:06:45.196Z,69.06
2023-05-12T11:09:13.981Z,69.76
2023-05-12T11:11:45.712Z,74.38
2023-05-12T11:14:13.395Z,76.24
2023-05-12T11:16:43.359Z,77.52
2023-05-12T11:19:11.593Z,77.50
2023-05-12T11:21:39.874Z,78.57
2023-05-12T11:24:13.018Z,79.31
2023-05-12T11:26:41.281Z,80.22
2023-05-12T11:29:10.068Z,81.64
2023-05-12T11:31:37.919Z,82.01
2023-05-12T11:34:12.091Z,83.00
2023-05-12T11:36:42.140Z,81.01
2023-05-12T11:39:14.560Z,81.12
2023-05-12T11:41:42.142Z,81.44
2023-05-12T11:44:18.569Z,81.28
2023-05-12T11:46:57.022Z,82.26
2023-05-12T11:49:24.524Z,83.13
2023-05-12T11:51:53.739Z,82.76
2023-05-12T11:54:21.922Z,83.56
2023-05-12T11:56:49.923Z,83.33
2023-05-12T11:59:29.611Z,83.51
2023-05-12T12:01:57.785Z,83.48
2023-05-12T12:04:36.254Z,81.88
2023-05-12T12:07:04.072Z,82.08
2023-05-12T12:09:33.014Z,82.06
2023-05-12T12:12:00.729Z,80.54
2023-05-12T12:14:29.846Z,76.03
2023-05-12T12:16:57.335Z,76.68
2023-05-12T12:19:25.288Z,77.90
2023-05-12T12:21:52.915Z,74.25
2023-05-12T12:24:20.374Z,75.11
2023-05-12T12:26:47.844Z,76.00
2023-05-12T12:29:15.360Z,75.56
2023-05-12T12:31:44.593Z,75.65
2023-05-12T12:34:12.458Z,75.80
2023-05-12T12:36:40.003Z,75.79
2023-05-12T12:39:08.027Z,75.86
2023-05-12T12:41:35.474Z,75.84
2023-05-12T12:44:02.956Z,76.76
2023-05-12T12:46:30.429Z,74.88
2023-05-12T12:48:59.233Z,77.43
2023-05-12T12:51:38.513Z,74.95
2023-05-12T12:54:12.420Z,74.45
2023-05-12T12:56:39.878Z,76.96
2023-05-12T12:59:07.551Z,77.89
2023-05-12T13:01:35.279Z,73.82
2023-05-12T13:04:04.433Z,73.55
2023-05-12T13:06:31.971Z,72.15
2023-05-12T13:08:59.563Z,73.17
2023-05-12T13:11:27.458Z,73.63
2023-05-12T13:13:54.895Z,74.53
2023-05-12T13:16:22.456Z,74.74
2023-05-12T13:18:51.146Z,73.18
2023-05-12T13:21:19.960Z,73.31
2023-05-12T13:23:47.404Z,75.55
2023-05-12T13:26:14.873Z,73.06
2023-05-12T13:28:43.107Z,71.89
2023-05-12T13:31:10.782Z,71.79
2023-05-12T13:33:38.401Z,71.52
2023-05-12T13:36:06.449Z,73.39
2023-05-12T13:38:35.221Z,70.40
2023-05-12T13:41:03.118Z,70.13
2023-05-12T13:43:30.600Z,68.96
2023-05-12T13:45:58.096Z,67.61
2023-05-12T13:48:25.660Z,68.27
2023-05-12T13:50:53.122Z,66.94
2023-05-12T13:53:20.709Z,66.85
2023-05-12T13:55:49.479Z,67.19
2023-05-12T13:58:16.946Z,67.25
2023-05-12T14:00:44.426Z,67.48
2023-05-12T14:03:11.912Z,68.93
2023-05-12T14:05:39.474Z,67.08
2023-05-12T14:08:06.988Z,68.03
2023-05-12T14:10:35.308Z,68.01
2023-05-12T14:13:04.452Z,68.41
2023-05-12T14:15:44.341Z,64.48
2023-05-12T14:18:15.913Z,67.72
2023-05-12T14:20:46.771Z,64.67
2023-05-12T14:23:14.260Z,67.40
2023-05-12T14:25:41.744Z,65.70
2023-05-12T14:28:10.571Z,65.54
2023-05-12T14:30:38.315Z,65.53
2023-05-12T14:33:06.372Z,63.60
2023-05-12T14:35:33.896Z,64.35
2023-05-12T14:38:04.596Z,63.58
2023-05-12T14:40:32.102Z,64.71
2023-05-12T14:42:59.889Z,64.90
2023-05-12T14:45:28.761Z,62.10
2023-05-12T14:47:56.263Z,64.89
2023-05-12T14:50:24.017Z,65.24
2023-05-12T14:52:51.603Z,66.67
2023-05-12T14:55:19.372Z,62.72
2023-05-12T14:57:47.827Z,67.29
2023-05-12T15:00:16.349Z,67.97
2023-05-12T15:02:46.223Z,64.06
2023-05-12T15:05:15.170Z,61.05
2023-05-12T15:07:42.687Z,62.54
2023-05-12T15:10:11.178Z,63.56
2023-05-12T15:12:38.674Z,63.48
2023-05-12T15:15:08.778Z,61.16
2023-05-12T15:17:36.440Z,64.69
2023-05-12T15:20:06.707Z,63.74
2023-05-12T15:22:34.215Z,60.36
2023-05-12T15:25:04.095Z,61.41
2023-05-12T15:27:32.979Z,62.08
2023-05-12T15:30:00.459Z,58.84
2023-05-12T15:32:28.429Z,64.45
2023-05-12T15:34:57.040Z,65.93
2023-05-12T15:37:25.987Z,63.05
2023-05-12T15:39:53.452Z,66.48
2023-05-12T15:42:26.283Z,63.38
2023-05-12T15:44:59.928Z,67.98
2023-05-12T15:47:27.540Z,66.83
2023-05-12T15:49:55.066Z,67.73
2023-05-12T15:52:22.919Z,68.21
2023-05-12T15:54:51.872Z,69.36
2023-05-12T15:57:19.308Z,68.89
2023-05-12T15:59:47.446Z,70.73
2023-05-12T16:02:15.045Z,70.68
2023-05-12T16:04:45.545Z,71.16
2023-05-12T16:07:13.140Z,71.44
2023-05-12T16:09:40.595Z,70.87
2023-05-12T16:12:46.395Z,69.41
2023-05-12T16:15:14.064Z,69.82
2023-05-12T16:17:41.535Z,69.51
2023-05-12T16:20:10.224Z,70.92
2023-05-12T16:22:37.713Z,68.58
2023-05-12T16:25:06.086Z,68.01
2023-05-12T16:27:36.635Z,68.83
2023-05-12T16:30:04.891Z,70.22
2023-05-12T16:32:32.386Z,71.72
2023-05-12T16:35:00.826Z,71.18
2023-05-12T16:37:28.683Z,71.67
2023-05-12T16:39:56.366Z,70.54
2023-05-12T16:42:23.878Z,68.66
2023-05-12T16:44:55.532Z,70.05
2023-05-12T16:47:23.065Z,71.11
2023-05-12T16:49:53.023Z,71.50
2023-05-12T16:52:20.534Z,70.41
2023-05-12T16:54:48.022Z,69.51
2023-05-12T16:57:15.674Z,69.86
2023-05-12T16:59:43.148Z,70.66
2023-05-12T17:02:12.022Z,72.08
2023-05-12T17:04:39.508Z,72.33
2023-05-12T17:07:07.113Z,72.96
2023-05-12T17:09:34.715Z,72.46
2023-05-12T17:12:04.215Z,74.55
2023-05-12T17:14:31.944Z,74.32
2023-05-12T17:16:59.548Z,73.71
2023-05-12T17:19:28.430Z,73.84
2023-05-12T17:21:56.080Z,73.86
2023-05-12T17:24:23.550Z,74.21
2023-05-12T17:26:51.015Z,73.63
2023-05-12T17:29:18.617Z,74.52
2023-05-12T17:31:46.161Z,72.83
2023-05-12T17:34:13.694Z,74.86
2023-05-12T17:36:42.579Z,73.43
2023-05-12T17:39:10.408Z,74.48
2023-05-12T17:41:37.851Z,75.25
2023-05-12T17:44:05.655Z,76.25
2023-05-12T17:46:33.629Z,76.46
2023-05-12T17:49:01.170Z,76.55
2023-05-12T17:51:29.753Z,77.03
2023-05-12T17:53:58.671Z,77.27
2023-05-12T17:56:26.453Z,77.04
2023-05-12T17:58:54.095Z,77.37
2023-05-12T18:01:21.751Z,77.35
2023-05-12T18:03:49.367Z,77.48
2023-05-12T18:06:16.979Z,78.06
2023-05-12T18:08:44.751Z,78.11
2023-05-12T18:11:14.537Z,77.60
2023-05-12T18:13:42.239Z,78.22
2023-05-12T18:16:18.188Z,78.61
2023-05-12T18:18:55.397Z,80.03
2023-05-12T18:21:22.943Z,79.88
2023-05-12T18:23:50.401Z,80.35
2023-05-12T18:26:19.200Z,81.16
2023-05-12T18:28:46.739Z,80.96
2023-05-12T18:31:16.249Z,81.84
2023-05-12T18:33:47.192Z,82.43
2023-05-12T18:36:14.717Z,82.98
2023-05-12T18:38:42.193Z,84.15
2023-05-12T18:41:09.863Z,83.48
2023-05-12T18:43:38.894Z,83.45
2023-05-12T18:46:06.949Z,83.88
2023-05-12T18:48:34.673Z,84.38
2023-05-12T18:51:02.208Z,86.52
2023-05-12T18:53:29.717Z,87.33
2023-05-12T18:55:57.280Z,87.90
2023-05-12T18:58:24.991Z,88.33
2023-05-12T19:00:53.969Z,88.00
2023-05-12T19:03:21.791Z,87.92
2023-05-12T19:05:49.438Z,87.62
2023-05-12T19:08:17.559Z,86.95
2023-05-12T19:10:45.369Z,86.66
2023-05-12T19:13:13.254Z,87.60
2023-05-12T19:15:40.715Z,84.42
2023-05-12T19:18:09.938Z,81.69
2023-05-12T19:20:37.594Z,80.70
2023-05-12T19:23:05.067Z,80.67
2023-05-12T19:25:32.539Z,78.71
2023-05-12T19:27:59.971Z,78.85
2023-05-12T19:30:28.423Z,77.97
2023-05-12T19:32:55.996Z,77.46
2023-05-12T19:35:25.530Z,77.75
2023-05-12T19:37:52.974Z,78.31
2023-05-12T19:40:20.555Z,77.98
2023-05-12T19:42:48.055Z,78.26
2023-05-12T19:45:15.782Z,78.69
2023-05-12T19:47:43.315Z,78.37
2023-05-12T19:50:11.510Z,78.18
2023-05-12T19:52:40.391Z,78.61
2023-05-12T19:55:08.666Z,80.59
2023-05-12T19:57:36.848Z,81.01
2023-05-12T20:00:05.180Z,82.19
2023-05-12T20:02:32.825Z,83.97
2023-05-12T20:05:00.676Z,84.71
2023-05-12T20:07:28.340Z,84.93
2023-05-12T20:09:57.202Z,88.44
2023-05-12T20:12:24.758Z,90.20
2023-05-12T20:14:52.197Z,92.62
2023-05-12T20:17:19.765Z,91.54
2023-05-12T20:19:47.422Z,92.35
2023-05-12T20:22:14.904Z,93.53
2023-05-12T20:24:42.376Z,94.29
2023-05-12T20:27:11.943Z,94.54
2023-05-12T20:29:39.367Z,94.95
2023-05-12T20:32:07.189Z,95.90
2023-05-12T20:34:34.620Z,95.99
2023-05-12T20:37:02.074Z,96.73
2023-05-12T20:39:29.509Z,97.29
2023-05-12T20:41:56.985Z,97.66
2023-05-12T20:44:26.318Z,98.01
2023-05-12T20:46:53.933Z,98.23
2023-05-12T20:49:21.526Z,98.08
2023-05-12T20:51:48.989Z,98.06
2023-05-12T20:54:16.438Z,97.70
2023-05-12T20:56:43.863Z,97.28
2023-05-12T20:59:11.306Z,97.71
2023-05-12T21:01:40.890Z,97.62
2023-05-12T21:04:08.584Z,97.94
2023-05-12T21:06:36.940Z,97.35
2023-05-12T21:09:05.197Z,97.17
2023-05-12T21:11:32.656Z,96.93
2023-05-12T21:14:00.173Z,96.84
2023-05-12T21:16:27.629Z,97.15
2023-05-12T21:18:56.522Z,96.82
2023-05-12T21:21:23.985Z,96.73
2023-05-12T21:23:51.444Z,97.09
2023-05-12T21:26:18.898Z,97.34
2023-05-12T21:28:46.477Z,98.38
2023-05-12T21:31:13.967Z,98.28
2023-05-12T21:33:41.839Z,98.70
2023-05-12T21:36:10.812Z,98.91
2023-05-12T21:38:38.326Z,99.01
2023-05-12T21:41:05.914Z,99.77
2023-05-12T21:43:33.390Z,100.00
2023-05-12T21:46:03.306Z,100.00
2023-05-12T21:48:31.018Z,100.00
2023-05-12T21:50:59.752Z,100.00
2023-05-12T21:53:28.925Z,100.00
2023-05-12T21:55:56.480Z,100.00
2023-05-12T21:58:23.943Z,100.00
2023-05-12T22:00:52.223Z,100.00
2023-05-12T22:03:20.338Z,100.00
2023-05-12T22:05:48.475Z,100.00
2023-05-12T22:08:16.229Z,100.00
2023-05-12T22:10:45.052Z,100.00
2023-05-12T22:13:12.660Z,100.00
2023-05-12T22:15:40.186Z,100.00
2023-05-12T22:18:07.756Z,100.00
2023-05-12T22:20:35.614Z,100.00
2023-05-12T22:23:03.537Z,100.00
2023-05-12T22:25:31.003Z,100.00
2023-05-12T22:27:59.820Z,100.00
2023-05-12T22:30:27.278Z,100.00
2023-05-12T22:32:54.780Z,100.00
2023-05-12T22:35:22.336Z,100.00
2023-05-12T22:37:49.993Z,100.00
2023-05-12T22:40:22.015Z,100.00
2023-05-12T22:42:49.612Z,99.68
2023-05-12T22:45:18.659Z,95.81
2023-05-12T22:47:46.283Z,91.79
2023-05-12T22:50:13.794Z,92.27
2023-05-12T22:52:41.252Z,91.67
2023-05-12T22:55:09.473Z,89.01
2023-05-12T22:57:38.443Z,88.84
2023-05-12T23:00:07.477Z,88.52
2023-05-12T23:02:36.471Z,89.90
2023-05-12T23:05:04.479Z,89.40
2023-05-12T23:07:32.049Z,89.59
2023-05-12T23:09:59.489Z,89.29
2023-05-12T23:12:27.026Z,89.33
2023-05-12T23:14:54.483Z,89.02
2023-05-12T23:17:21.970Z,88.37
2023-05-12T23:19:52.058Z,87.83
2023-05-12T23:22:19.557Z,87.48
2023-05-12T23:24:47.028Z,87.17
2023-05-12T23:27:14.496Z,86.98
2023-05-12T23:29:41.947Z,86.47
2023-05-12T23:32:09.640Z,86.12
2023-05-12T23:34:40.276Z,85.79
2023-05-12T23:37:09.304Z,85.80
2023-05-12T23:39:37.012Z,85.80
2023-05-12T23:42:04.578Z,86.29
2023-05-12T23:44:32.083Z,86.14
2023-05-12T23:46:59.608Z,86.58
2023-05-12T23:49:27.376Z,86.12
2023-05-12T23:51:54.912Z,86.27
2023-05-12T23:54:23.954Z,87.86
2023-05-12T23:56:51.525Z,91.48
2023-05-12T23:59:19.271Z,91.97
